Time;durP1;ratioP1;P1;durP2;ratioP2;P2;SDS_P1;SDS_P2;PMS_P1;PMS_P2;Temp;Humidity;BMP_temperature;BMP_pressure;BME280_temperature;BME280_humidity;BME280_pressure;Samples;Min_cycle;Max_cycle;Signal;HPM_P1;HPM_P2
2023/05/25 00:00:19;;;;;;;8.20;7.40;;;;;;;;;;107367;285;39021;-35
2023/05/25 00:03:15;;;;;;;8.10;7.30;;;;;;;;;;107357;287;39840;-36
2023/05/25 00:05:52;;;;;;;8.80;7.80;;;;;;;;;;107420;286;42887;-35
2023/05/25 00:08:27;;;;;;;8.30;7.40;;;;;;;;;;107393;285;41885;-35
2023/05/25 00:11:02;;;;;;;8.10;7.40;;;;;;;;;;107446;285;38782;-36
2023/05/25 00:13:36;;;;;;;8.10;7.10;;;;;;;;;;107393;285;39698;-36
2023/05/25 00:16:11;;;;;;;8.70;7.90;;;;;;;;;;107412;287;42823;-36
2023/05/25 00:18:47;;;;;;;8.30;7.50;;;;;;;;;;107376;288;42144;-36
2023/05/25 00:21:21;;;;;;;8.50;7.70;;;;;;;;;;107392;287;38932;-36
2023/05/25 00:23:54;;;;;;;8.50;7.70;;;;;;;;;;107416;285;39689;-36
2023/05/25 00:26:29;;;;;;;8.40;7.50;;;;;;;;;;107314;285;175499;-36
2023/05/25 00:29:02;;;;;;;7.70;7.00;;;;;;;;;;107379;285;42219;-36
2023/05/25 00:31:37;;;;;;;7.80;7.00;;;;;;;;;;107401;280;38807;-36
2023/05/25 00:34:11;;;;;;;8.20;7.30;;;;;;;;;;107401;285;39741;-36
2023/05/25 00:36:47;;;;;;;8.40;7.40;;;;;;;;;;107297;285;175486;-36
2023/05/25 00:39:21;;;;;;;7.70;7.00;;;;;;;;;;107359;287;42189;-36
2023/05/25 00:41:56;;;;;;;8.30;7.50;;;;;;;;;;106739;287;893189;-36
2023/05/25 00:44:30;;;;;;;8.30;7.50;;;;;;;;;;107393;285;39430;-36
2023/05/25 00:47:08;;;;;;;8.00;7.20;;;;;;;;;;107418;287;42918;-36
2023/05/25 00:49:42;;;;;;;8.50;7.30;;;;;;;;;;107259;287;175499;-37
2023/05/25 00:52:16;;;;;;;8.00;7.20;;;;;;;;;;107433;287;39844;-36
2023/05/25 00:54:57;;;;;;;7.80;7.00;;;;;;;;;;107395;285;40935;-36
2023/05/25 00:57:36;;;;;;;8.00;7.20;;;;;;;;;;107399;285;42872;-37
2023/05/25 01:00:12;;;;;;;8.10;7.30;;;;;;;;;;107371;285;42163;-36
2023/05/25 01:02:51;;;;;;;8.20;7.40;;;;;;;;;;107440;285;38834;-36
2023/05/25 01:05:28;;;;;;;8.00;7.10;;;;;;;;;;107420;285;39829;-36
2023/05/25 01:08:05;;;;;;;8.40;7.40;;;;;;;;;;107427;285;42939;-36
2023/05/25 01:10:40;;;;;;;8.30;7.40;;;;;;;;;;107367;285;42266;-37
2023/05/25 01:13:19;;;;;;;8.30;7.40;;;;;;;;;;106746;285;894347;-38
2023/05/25 01:15:58;;;;;;;8.30;7.50;;;;;;;;;;106890;287;590163;-38
2023/05/25 01:18:33;;;;;;;8.60;7.70;;;;;;;;;;107270;287;43001;-38
2023/05/25 01:21:16;;;;;;;8.40;7.50;;;;;;;;;;107366;287;43272;-39
2023/05/25 01:24:01;;;;;;;9.50;8.10;;;;;;;;;;107409;285;39818;-38
2023/05/25 01:26:42;;;;;;;8.70;7.60;;;;;;;;;;107408;287;39692;-39
2023/05/25 01:29:17;;;;;;;8.40;7.60;;;;;;;;;;107354;287;42844;-39
2023/05/25 01:31:51;;;;;;;9.00;8.10;;;;;;;;;;107334;287;42160;-38
2023/05/25 01:34:26;;;;;;;9.30;7.90;;;;;;;;;;107409;285;38835;-38
2023/05/25 01:37:01;;;;;;;9.20;8.30;;;;;;;;;;107397;287;39676;-38
2023/05/25 01:39:35;;;;;;;9.00;8.10;;;;;;;;;;107393;285;42811;-39
2023/05/25 01:42:09;;;;;;;9.00;8.10;;;;;;;;;;107356;285;43273;-38
2023/05/25 01:44:44;;;;;;;9.20;8.20;;;;;;;;;;107409;287;38623;-38
2023/05/25 01:47:23;;;;;;;9.30;8.30;;;;;;;;;;107410;285;39737;-38
2023/05/25 01:50:08;;;;;;;9.50;8.40;;;;;;;;;;107418;285;42892;-38
2023/05/25 01:52:51;;;;;;;10.10;8.10;;;;;;;;;;106717;287;894069;-38
2023/05/25 01:55:29;;;;;;;9.20;8.20;;;;;;;;;;107417;285;38807;-38
2023/05/25 01:58:04;;;;;;;9.80;8.70;;;;;;;;;;107401;287;39698;-38
2023/05/25 02:00:40;;;;;;;10.10;8.80;;;;;;;;;;107355;287;42999;-38
2023/05/25 02:03:15;;;;;;;10.60;8.80;;;;;;;;;;107393;287;48305;-38
2023/05/25 02:05:50;;;;;;;9.90;8.80;;;;;;;;;;107417;287;38856;-38
2023/05/25 02:08:23;;;;;;;10.00;9.00;;;;;;;;;;107370;285;39714;-38
2023/05/25 02:10:57;;;;;;;10.30;9.10;;;;;;;;;;107371;285;42872;-38
2023/05/25 02:13:32;;;;;;;9.90;8.90;;;;;;;;;;107420;285;49375;-38
2023/05/25 02:16:06;;;;;;;10.30;9.20;;;;;;;;;;107419;287;38807;-38
2023/05/25 02:18:43;;;;;;;12.20;9.40;;;;;;;;;;107408;287;39837;-38
2023/05/25 02:21:21;;;;;;;10.90;9.50;;;;;;;;;;107356;287;43008;-38
2023/05/25 02:23:56;;;;;;;10.40;9.30;;;;;;;;;;107363;285;41975;-39
2023/05/25 02:26:31;;;;;;;11.20;9.50;;;;;;;;;;107392;285;40874;-38
2023/05/25 02:29:05;;;;;;;10.40;9.10;;;;;;;;;;107417;287;39541;-38
2023/05/25 02:31:40;;;;;;;11.10;9.20;;;;;;;;;;107409;287;42791;-39
2023/05/25 02:34:16;;;;;;;10.60;9.00;;;;;;;;;;107409;285;42442;-38
2023/05/25 02:36:49;;;;;;;11.20;9.40;;;;;;;;;;107392;285;38601;-38
2023/05/25 02:39:25;;;;;;;10.00;9.00;;;;;;;;;;107388;287;39736;-38
2023/05/25 02:41:58;;;;;;;10.80;9.50;;;;;;;;;;107332;292;43426;-38
2023/05/25 02:44:32;;;;;;;10.50;9.40;;;;;;;;;;107377;285;43323;-38
2023/05/25 02:47:06;;;;;;;11.30;9.50;;;;;;;;;;107414;285;39809;-38
2023/05/25 02:49:40;;;;;;;10.70;9.20;;;;;;;;;;107395;285;39714;-39
2023/05/25 02:52:14;;;;;;;10.60;9.20;;;;;;;;;;107365;287;42865;-38
2023/05/25 02:54:50;;;;;;;11.30;9.40;;;;;;;;;;107398;285;42315;-38
2023/05/25 02:57:23;;;;;;;10.50;9.40;;;;;;;;;;107459;285;38644;-38
2023/05/25 02:59:58;;;;;;;10.50;9.40;;;;;;;;;;107417;285;39456;-38
2023/05/25 03:02:32;;;;;;;10.40;9.30;;;;;;;;;;107356;287;42855;-38
2023/05/25 03:05:20;;;;;;;10.10;9.00;;;;;;;;;;107380;285;43372;-38
2023/05/25 03:07:55;;;;;;;10.20;8.80;;;;;;;;;;107392;287;38805;-38
2023/05/25 03:10:30;;;;;;;10.10;8.90;;;;;;;;;;107397;287;39911;-38
2023/05/25 03:13:05;;;;;;;10.30;8.90;;;;;;;;;;107357;285;44075;-38
2023/05/25 03:15:44;;;;;;;11.00;9.10;;;;;;;;;;107387;287;42214;-38
2023/05/25 03:18:19;;;;;;;10.60;9.20;;;;;;;;;;107396;285;38870;-38
2023/05/25 03:20:53;;;;;;;10.60;9.30;;;;;;;;;;107391;285;39632;-38
2023/05/25 03:23:26;;;;;;;10.00;8.90;;;;;;;;;;107369;285;42706;-38
2023/05/25 03:26:04;;;;;;;9.80;8.70;;;;;;;;;;107372;287;42282;-38
2023/05/25 03:28:39;;;;;;;10.20;9.00;;;;;;;;;;107400;285;38829;-38
2023/05/25 03:31:13;;;;;;;10.20;8.60;;;;;;;;;;107385;287;39757;-38
2023/05/25 03:33:47;;;;;;;9.50;8.50;;;;;;;;;;107361;291;45193;-38
2023/05/25 03:36:26;;;;;;;10.50;8.90;;;;;;;;;;107378;285;42151;-38
2023/05/25 03:38:59;;;;;;;9.80;8.80;;;;;;;;;;107410;285;39052;-38
2023/05/25 03:41:33;;;;;;;9.70;8.70;;;;;;;;;;107396;285;39502;-38
2023/05/25 03:44:06;;;;;;;9.70;8.70;;;;;;;;;;107360;287;43960;-38
2023/05/25 03:46:41;;;;;;;9.90;8.90;;;;;;;;;;107371;285;42161;-38
2023/05/25 03:49:16;;;;;;;10.60;8.80;;;;;;;;;;107421;285;39942;-38
2023/05/25 03:51:49;;;;;;;9.80;8.80;;;;;;;;;;107437;285;40846;-38
2023/05/25 03:54:25;;;;;;;9.80;8.70;;;;;;;;;;107376;287;43269;-36
2023/05/25 03:56:58;;;;;;;9.70;8.70;;;;;;;;;;107408;285;42151;-36
2023/05/25 03:59:34;;;;;;;10.60;8.80;;;;;;;;;;107367;287;38824;-36
2023/05/25 04:02:10;;;;;;;9.70;8.70;;;;;;;;;;107416;285;39844;-36
2023/05/25 04:04:43;;;;;;;9.90;8.90;;;;;;;;;;107225;287;175509;-36
2023/05/25 04:07:17;;;;;;;9.60;8.60;;;;;;;;;;107402;287;42126;-36
2023/05/25 04:09:50;;;;;;;9.60;8.40;;;;;;;;;;107389;287;38713;-38
2023/05/25 04:12:24;;;;;;;10.10;9.00;;;;;;;;;;107399;285;39673;-39
2023/05/25 04:14:58;;;;;;;9.80;8.70;;;;;;;;;;107343;287;44014;-38
2023/05/25 04:17:31;;;;;;;9.40;8.40;;;;;;;;;;107408;285;41982;-38
2023/05/25 04:20:07;;;;;;;9.60;8.60;;;;;;;;;;107377;285;38812;-38
2023/05/25 04:22:42;;;;;;;10.00;8.90;;;;;;;;;;107401;288;39977;-38
2023/05/25 04:25:18;;;;;;;10.20;8.50;;;;;;;;;;107328;288;43024;-38
2023/05/25 04:27:55;;;;;;;9.70;8.70;;;;;;;;;;107363;287;42223;-38
2023/05/25 04:30:30;;;;;;;9.70;8.30;;;;;;;;;;107401;285;38810;-38
2023/05/25 04:33:03;;;;;;;9.50;8.40;;;;;;;;;;107423;285;39800;-38
2023/05/25 04:35:36;;;;;;;9.40;8.30;;;;;;;;;;107348;287;42980;-38
2023/05/25 04:38:11;;;;;;;9.50;8.30;;;;;;;;;;107356;285;43162;-38
2023/05/25 04:40:45;;;;;;;9.80;8.80;;;;;;;;;;107397;287;38890;-38
2023/05/25 04:43:19;;;;;;;9.50;8.40;;;;;;;;;;107409;285;39767;-38
2023/05/25 04:45:53;;;;;;;10.00;8.40;;;;;;;;;;107338;285;43000;-38
2023/05/25 04:48:28;;;;;;;9.50;8.50;;;;;;;;;;107404;285;42491;-38
2023/05/25 04:51:01;;;;;;;10.30;8.50;;;;;;;;;;107398;287;38585;-38
2023/05/25 04:53:35;;;;;;;10.40;8.90;;;;;;;;;;107352;287;39849;-38
2023/05/25 04:56:08;;;;;;;9.70;8.50;;;;;;;;;;107350;287;42863;-38
2023/05/25 04:58:41;;;;;;;9.60;8.40;;;;;;;;;;107380;285;42447;-38
2023/05/25 05:01:15;;;;;;;9.60;8.50;;;;;;;;;;107389;280;38783;-38
2023/05/25 05:03:48;;;;;;;9.40;8.40;;;;;;;;;;107409;287;39596;-38
2023/05/25 05:06:24;;;;;;;10.10;9.00;;;;;;;;;;107382;287;42898;-38
2023/05/25 05:08:58;;;;;;;9.50;8.50;;;;;;;;;;107411;287;42612;-38
2023/05/25 05:11:32;;;;;;;10.30;8.70;;;;;;;;;;107413;287;38778;-36
2023/05/25 05:14:05;;;;;;;9.90;8.70;;;;;;;;;;107435;285;40729;-36
2023/05/25 05:16:39;;;;;;;9.30;8.30;;;;;;;;;;107370;287;42895;-35
2023/05/25 05:19:13;;;;;;;9.50;8.40;;;;;;;;;;107401;285;42418;-35
2023/05/25 05:21:47;;;;;;;9.80;8.10;;;;;;;;;;107378;287;38899;-36
2023/05/25 05:24:20;;;;;;;9.10;8.10;;;;;;;;;;107378;285;39712;-36
2023/05/25 05:26:54;;;;;;;9.80;8.30;;;;;;;;;;107342;287;42850;-36
2023/05/25 05:29:32;;;;;;;9.20;8.20;;;;;;;;;;107379;285;43031;-36
2023/05/25 05:32:07;;;;;;;10.50;9.40;;;;;;;;;;107388;285;38881;-36
2023/05/25 05:34:40;;;;;;;9.70;8.60;;;;;;;;;;107276;289;175546;-36
2023/05/25 05:37:13;;;;;;;9.50;8.20;;;;;;;;;;107333;287;42982;-36
2023/05/25 05:39:48;;;;;;;9.60;8.20;;;;;;;;;;107258;287;175515;-36
2023/05/25 05:42:21;;;;;;;9.00;7.90;;;;;;;;;;107385;287;38856;-36
2023/05/25 05:44:54;;;;;;;9.70;8.30;;;;;;;;;;107398;287;39489;-36
2023/05/25 05:47:27;;;;;;;8.90;7.90;;;;;;;;;;107361;283;42853;-36
2023/05/25 05:50:01;;;;;;;9.80;8.70;;;;;;;;;;107322;285;175502;-36
2023/05/25 05:52:34;;;;;;;10.10;8.90;;;;;;;;;;107374;285;39964;-36
2023/05/25 05:55:09;;;;;;;9.80;8.30;;;;;;;;;;107383;287;39754;-36
2023/05/25 05:57:42;;;;;;;9.20;8.10;;;;;;;;;;107522;287;42897;-36
2023/05/25 06:00:18;;;;;;;9.90;8.20;;;;;;;;;;107399;287;42281;-36
2023/05/25 06:02:52;;;;;;;9.20;8.20;;;;;;;;;;107409;292;38710;-35
2023/05/25 06:05:28;;;;;;;9.20;8.10;;;;;;;;;;107442;287;39719;-36
2023/05/25 06:08:03;;;;;;;8.80;7.90;;;;;;;;;;107384;285;49587;-36
2023/05/25 06:10:41;;;;;;;9.20;8.10;;;;;;;;;;107413;287;43317;-36
2023/05/25 06:13:14;;;;;;;9.70;8.40;;;;;;;;;;107441;285;38900;-36
2023/05/25 06:15:48;;;;;;;9.20;7.90;;;;;;;;;;107402;285;39718;-37
2023/05/25 06:18:23;;;;;;;9.10;8.20;;;;;;;;;;107434;287;44252;-36
2023/05/25 06:20:58;;;;;;;9.00;7.80;;;;;;;;;;107415;287;42578;-36
2023/05/25 06:23:32;;;;;;;9.90;8.20;;;;;;;;;;107413;287;40079;-36
2023/05/25 06:26:10;;;;;;;9.70;8.30;;;;;;;;;;107360;285;39865;-36
2023/05/25 06:28:45;;;;;;;9.00;8.10;;;;;;;;;;107399;285;50095;-36
2023/05/25 06:31:19;;;;;;;9.20;8.20;;;;;;;;;;107394;285;42304;-36
2023/05/25 06:33:53;;;;;;;9.50;8.50;;;;;;;;;;107418;287;38780;-36
2023/05/25 06:36:26;;;;;;;9.00;8.00;;;;;;;;;;107386;287;39687;-36
2023/05/25 06:39:03;;;;;;;9.30;8.30;;;;;;;;;;107399;285;49472;-36
2023/05/25 06:41:43;;;;;;;9.20;8.20;;;;;;;;;;107410;287;41923;-36
2023/05/25 06:44:17;;;;;;;9.20;8.10;;;;;;;;;;107396;285;39868;-36
2023/05/25 06:46:52;;;;;;;8.70;7.70;;;;;;;;;;107410;284;39761;-36
2023/05/25 06:49:28;;;;;;;9.30;8.30;;;;;;;;;;107399;285;43003;-35
2023/05/25 06:52:06;;;;;;;8.90;8.00;;;;;;;;;;107401;287;41877;-36
2023/05/25 06:54:40;;;;;;;9.90;8.60;;;;;;;;;;107414;285;38816;-36
2023/05/25 06:57:17;;;;;;;9.00;8.10;;;;;;;;;;107355;285;40519;-36
2023/05/25 06:59:52;;;;;;;9.10;8.10;;;;;;;;;;107270;287;175532;-36
2023/05/25 07:02:26;;;;;;;10.30;8.50;;;;;;;;;;107392;287;41909;-36
2023/05/25 07:05:01;;;;;;;9.60;8.50;;;;;;;;;;107388;285;38576;-36
2023/05/25 07:07:35;;;;;;;9.90;8.70;;;;;;;;;;107340;285;40159;-36
2023/05/25 07:10:11;;;;;;;10.00;8.90;;;;;;;;;;107389;285;42968;-36
2023/05/25 07:12:48;;;;;;;10.20;9.10;;;;;;;;;;107439;287;42336;-36
2023/05/25 07:15:27;;;;;;;10.30;9.20;;;;;;;;;;107448;285;38865;-36
2023/05/25 07:18:01;;;;;;;11.10;9.90;;;;;;;;;;107385;287;39830;-35
2023/05/25 07:20:38;;;;;;;10.60;9.30;;;;;;;;;;107190;287;42860;-35
2023/05/25 07:23:13;;;;;;;11.20;9.70;;;;;;;;;;107423;285;42453;-36
2023/05/25 07:25:51;;;;;;;12.90;11.60;;;;;;;;;;107397;287;38903;-37
2023/05/25 07:28:26;;;;;;;13.60;11.50;;;;;;;;;;107276;285;39452;-40
2023/05/25 07:31:01;;;;;;;14.90;13.00;;;;;;;;;;107305;287;42876;-39
2023/05/25 07:33:40;;;;;;;16.50;14.80;;;;;;;;;;107414;285;42381;-38
2023/05/25 07:36:14;;;;;;;17.90;15.50;;;;;;;;;;107412;284;38843;-38
2023/05/25 07:38:49;;;;;;;16.10;14.20;;;;;;;;;;107396;286;40910;-38
2023/05/25 07:41:22;;;;;;;16.60;14.90;;;;;;;;;;107388;287;43165;-38
2023/05/25 07:43:59;;;;;;;16.70;15.00;;;;;;;;;;107366;287;42222;-36
2023/05/25 07:46:34;;;;;;;16.20;14.50;;;;;;;;;;107278;287;175583;-34
2023/05/25 07:49:14;;;;;;;15.90;14.20;;;;;;;;;;107388;287;39468;-35
2023/05/25 07:51:50;;;;;;;16.40;14.60;;;;;;;;;;107393;284;42915;-35
2023/05/25 07:54:24;;;;;;;16.50;14.60;;;;;;;;;;107404;284;43146;-35
2023/05/25 07:56:57;;;;;;;15.90;14.30;;;;;;;;;;107363;287;38820;-35
2023/05/25 07:59:32;;;;;;;17.00;15.20;;;;;;;;;;107328;285;39866;-35
2023/05/25 08:02:08;;;;;;;17.20;14.60;;;;;;;;;;107305;286;196229;-35
2023/05/25 08:04:42;;;;;;;16.00;14.30;;;;;;;;;;107378;287;42513;-37
2023/05/25 08:07:18;;;;;;;16.70;14.90;;;;;;;;;;107365;289;38999;-35
2023/05/25 08:09:53;;;;;;;17.60;15.70;;;;;;;;;;107355;286;39733;-35
2023/05/25 08:12:28;;;;;;;16.50;14.70;;;;;;;;;;107336;287;42934;-40
2023/05/25 08:15:23;;;;;;;16.30;14.60;;;;;;;;;;107301;286;42288;-38
2023/05/25 08:17:56;;;;;;;16.40;14.60;;;;;;;;;;107417;284;38965;-38
2023/05/25 08:20:31;;;;;;;16.70;15.00;;;;;;;;;;107308;287;40198;-38
2023/05/25 08:23:04;;;;;;;17.30;15.50;;;;;;;;;;107402;285;42924;-37
2023/05/25 08:25:38;;;;;;;18.60;16.30;;;;;;;;;;107423;284;42231;-38
2023/05/25 08:28:11;;;;;;;18.80;15.40;;;;;;;;;;107406;287;38809;-37
2023/05/25 08:30:47;;;;;;;17.20;15.40;;;;;;;;;;107358;286;39791;-39
2023/05/25 08:33:22;;;;;;;15.30;13.70;;;;;;;;;;107411;284;42959;-36
2023/05/25 08:35:59;;;;;;;15.80;14.20;;;;;;;;;;107368;285;42195;-38
2023/05/25 08:38:35;;;;;;;15.80;14.20;;;;;;;;;;107340;285;38826;-37
2023/05/25 08:41:10;;;;;;;15.60;13.90;;;;;;;;;;107386;285;40353;-37
2023/05/25 08:43:47;;;;;;;15.00;13.30;;;;;;;;;;107370;286;43056;-38
2023/05/25 08:46:31;;;;;;;16.90;15.20;;;;;;;;;;107313;286;175541;-40
2023/05/25 08:49:12;;;;;;;16.00;14.40;;;;;;;;;;107464;287;38856;-41
2023/05/25 08:51:55;;;;;;;16.30;14.50;;;;;;;;;;107373;287;46308;-40
2023/05/25 08:54:36;;;;;;;16.40;14.70;;;;;;;;;;107422;287;42887;-36
2023/05/25 08:57:17;;;;;;;14.30;12.80;;;;;;;;;;107405;285;43483;-37
2023/05/25 09:00:00;;;;;;;14.30;12.80;;;;;;;;;;107350;280;38632;-37
2023/05/25 09:02:42;;;;;;;13.80;12.40;;;;;;;;;;107366;285;39689;-37
2023/05/25 09:05:19;;;;;;;15.80;14.10;;;;;;;;;;107379;285;42907;-36
2023/05/25 09:07:55;;;;;;;16.30;14.70;;;;;;;;;;107446;284;43137;-39
2023/05/25 09:10:32;;;;;;;14.40;13.00;;;;;;;;;;107345;287;38825;-37
2023/05/25 09:13:09;;;;;;;13.70;12.30;;;;;;;;;;107472;285;39452;-37
2023/05/25 09:15:54;;;;;;;14.60;13.10;;;;;;;;;;106795;287;674749;-36
2023/05/25 09:18:30;;;;;;;13.90;12.40;;;;;;;;;;107350;286;42166;-37
2023/05/25 09:21:04;;;;;;;14.70;13.30;;;;;;;;;;107360;287;39161;-37
2023/05/25 09:23:39;;;;;;;14.10;12.70;;;;;;;;;;107400;286;40889;-37
2023/05/25 09:26:13;;;;;;;14.30;12.80;;;;;;;;;;107433;284;44986;-37
2023/05/25 09:28:55;;;;;;;14.90;13.50;;;;;;;;;;107370;286;42192;-37
2023/05/25 09:31:31;;;;;;;14.20;12.80;;;;;;;;;;107385;285;38798;-38
2023/05/25 09:34:05;;;;;;;14.60;13.10;;;;;;;;;;107412;286;39434;-36
2023/05/25 09:36:41;;;;;;;13.80;12.40;;;;;;;;;;107353;285;42913;-37
2023/05/25 09:39:17;;;;;;;14.30;12.80;;;;;;;;;;107410;287;42243;-38
2023/05/25 09:41:50;;;;;;;15.70;13.20;;;;;;;;;;107394;284;38842;-39
2023/05/25 09:44:25;;;;;;;14.30;12.80;;;;;;;;;;107382;287;39728;-37
2023/05/25 09:46:59;;;;;;;14.20;12.80;;;;;;;;;;107376;286;43103;-38
2023/05/25 09:49:32;;;;;;;14.40;13.00;;;;;;;;;;107363;286;42294;-37
2023/05/25 09:52:08;;;;;;;13.20;11.90;;;;;;;;;;107346;287;38888;-38
2023/05/25 09:54:45;;;;;;;13.60;12.30;;;;;;;;;;107392;286;39819;-38
2023/05/25 09:57:20;;;;;;;13.90;12.60;;;;;;;;;;107392;284;42957;-37
2023/05/25 09:59:56;;;;;;;13.90;12.50;;;;;;;;;;107401;287;42465;-37
2023/05/25 10:02:29;;;;;;;13.80;12.40;;;;;;;;;;107408;286;38782;-37
2023/05/25 10:05:06;;;;;;;14.20;12.80;;;;;;;;;;107210;287;39935;-37
2023/05/25 10:07:40;;;;;;;13.00;11.80;;;;;;;;;;107445;284;42926;-37
2023/05/25 10:10:21;;;;;;;13.20;12.00;;;;;;;;;;107397;284;42228;-37
2023/05/25 10:12:57;;;;;;;13.60;12.30;;;;;;;;;;107342;286;38878;-35
2023/05/25 10:15:31;;;;;;;12.40;11.20;;;;;;;;;;107419;285;39685;-36
2023/05/25 10:18:08;;;;;;;13.00;11.00;;;;;;;;;;107401;284;42818;-37
2023/05/25 10:20:43;;;;;;;11.70;10.50;;;;;;;;;;107383;284;42399;-35
2023/05/25 10:23:21;;;;;;;11.60;10.50;;;;;;;;;;107409;287;38528;-36
2023/05/25 10:26:01;;;;;;;11.30;10.10;;;;;;;;;;107412;287;39741;-39
2023/05/25 10:28:39;;;;;;;11.00;9.90;;;;;;;;;;107355;284;43167;-41
2023/05/25 10:31:13;;;;;;;10.80;9.70;;;;;;;;;;107419;287;43167;-40
2023/05/25 10:33:49;;;;;;;10.60;9.50;;;;;;;;;;107392;287;44768;-38
2023/05/25 10:36:29;;;;;;;11.10;9.90;;;;;;;;;;107417;285;39722;-38
2023/05/25 10:39:06;;;;;;;10.60;9.60;;;;;;;;;;107391;285;42881;-41
2023/05/25 10:41:41;;;;;;;10.90;9.90;;;;;;;;;;107196;288;42218;-42
2023/05/25 10:44:18;;;;;;;11.20;10.10;;;;;;;;;;107391;286;40032;-42
2023/05/25 10:46:55;;;;;;;10.40;9.30;;;;;;;;;;107365;285;39861;-39
2023/05/25 10:49:51;;;;;;;11.00;9.90;;;;;;;;;;107432;285;42664;-41
2023/05/25 10:52:31;;;;;;;10.60;9.60;;;;;;;;;;107370;284;41866;-42
2023/05/25 10:55:06;;;;;;;10.70;9.60;;;;;;;;;;107386;285;39832;-42
2023/05/25 10:57:40;;;;;;;10.90;9.80;;;;;;;;;;107392;288;39869;-37
2023/05/25 11:00:18;;;;;;;10.70;9.70;;;;;;;;;;107399;284;43089;-40
2023/05/25 11:02:54;;;;;;;10.80;9.70;;;;;;;;;;107342;287;42175;-40
2023/05/25 11:05:38;;;;;;;11.30;10.10;;;;;;;;;;107393;286;38904;-39
2023/05/25 11:08:13;;;;;;;10.60;9.60;;;;;;;;;;107429;284;40807;-36
2023/05/25 11:10:53;;;;;;;10.50;9.50;;;;;;;;;;107361;286;42878;-39
2023/05/25 11:13:38;;;;;;;10.60;9.60;;;;;;;;;;107393;284;43337;-39
2023/05/25 11:16:20;;;;;;;10.40;9.40;;;;;;;;;;107435;284;38835;-42
2023/05/25 11:18:56;;;;;;;10.70;9.70;;;;;;;;;;107381;286;39815;-43
2023/05/25 11:21:46;;;;;;;10.60;9.50;;;;;;;;;;107409;284;43018;-42
2023/05/25 11:24:21;;;;;;;10.40;9.40;;;;;;;;;;107382;286;42174;-41
2023/05/25 11:27:00;;;;;;;10.60;9.50;;;;;;;;;;107409;286;38953;-42
2023/05/25 11:29:37;;;;;;;10.40;9.40;;;;;;;;;;107402;284;39796;-41
2023/05/25 11:32:16;;;;;;;10.70;9.70;;;;;;;;;;107413;284;43064;-42
2023/05/25 11:34:53;;;;;;;10.80;9.80;;;;;;;;;;107434;286;49928;-41
2023/05/25 11:37:30;;;;;;;10.20;9.20;;;;;;;;;;107397;287;39085;-42
2023/05/25 11:40:11;;;;;;;10.80;9.80;;;;;;;;;;107411;286;39845;-42
2023/05/25 11:42:48;;;;;;;10.60;9.60;;;;;;;;;;107364;286;43477;-42
2023/05/25 11:45:27;;;;;;;10.60;9.60;;;;;;;;;;107411;284;49596;-42
2023/05/25 11:48:02;;;;;;;10.20;9.20;;;;;;;;;;107366;288;40085;-42
2023/05/25 11:50:36;;;;;;;10.80;9.80;;;;;;;;;;107410;287;41954;-43
2023/05/25 11:53:10;;;;;;;10.70;9.70;;;;;;;;;;107384;284;43891;-42
2023/05/25 11:55:51;;;;;;;10.90;9.90;;;;;;;;;;107393;285;43388;-36
2023/05/25 11:58:40;;;;;;;11.00;10.00;;;;;;;;;;107385;284;38856;-36
2023/05/25 12:01:19;;;;;;;10.70;9.70;;;;;;;;;;107360;286;39694;-36
2023/05/25 12:03:55;;;;;;;10.70;9.70;;;;;;;;;;107387;287;42645;-36
2023/05/25 12:06:32;;;;;;;10.60;9.50;;;;;;;;;;107366;285;42149;-36
2023/05/25 12:09:12;;;;;;;10.70;9.70;;;;;;;;;;107432;287;38793;-36
2023/05/25 12:11:46;;;;;;;10.90;9.80;;;;;;;;;;107374;284;40804;-36
2023/05/25 12:14:22;;;;;;;10.80;9.80;;;;;;;;;;107336;287;44378;-36
2023/05/25 12:16:56;;;;;;;10.30;9.40;;;;;;;;;;107409;284;43376;-36
2023/05/25 12:19:30;;;;;;;10.70;9.70;;;;;;;;;;107360;284;39971;-36
2023/05/25 12:22:04;;;;;;;10.50;9.40;;;;;;;;;;107324;285;39886;-39
2023/05/25 12:24:37;;;;;;;10.70;9.10;;;;;;;;;;107302;285;45123;-38
2023/05/25 12:27:22;;;;;;;10.00;9.00;;;;;;;;;;107309;287;42195;-35
2023/05/25 12:29:59;;;;;;;9.90;8.90;;;;;;;;;;107320;287;38553;-36
2023/05/25 12:32:33;;;;;;;10.10;9.10;;;;;;;;;;107303;289;40965;-38
2023/05/25 12:35:08;;;;;;;9.80;8.90;;;;;;;;;;106611;287;893952;-36
2023/05/25 12:37:42;;;;;;;10.40;9.40;;;;;;;;;;107320;285;42174;-36
2023/05/25 12:40:27;;;;;;;10.00;9.10;;;;;;;;;;107326;287;38848;-37
2023/05/25 12:43:01;;;;;;;9.70;8.80;;;;;;;;;;107312;285;39726;-38
2023/05/25 12:45:34;;;;;;;10.30;9.30;;;;;;;;;;107289;285;42901;-37
2023/05/25 12:48:07;;;;;;;10.00;9.00;;;;;;;;;;107312;288;41987;-36
2023/05/25 12:50:58;;;;;;;9.70;8.80;;;;;;;;;;107327;287;38783;-36
2023/05/25 12:53:32;;;;;;;9.80;8.90;;;;;;;;;;107297;285;39414;-36
2023/05/25 12:56:11;;;;;;;9.50;8.60;;;;;;;;;;107306;287;44183;-35
2023/05/25 12:58:46;;;;;;;9.80;8.90;;;;;;;;;;107276;285;42258;-37
2023/05/25 13:01:19;;;;;;;9.40;8.50;;;;;;;;;;107340;285;38915;-37
2023/05/25 13:03:53;;;;;;;9.60;8.70;;;;;;;;;;107329;285;39827;-36
2023/05/25 13:06:27;;;;;;;9.80;8.90;;;;;;;;;;107297;285;42896;-36
2023/05/25 13:09:00;;;;;;;9.40;8.50;;;;;;;;;;107296;287;42456;-36
2023/05/25 13:11:33;;;;;;;9.90;8.90;;;;;;;;;;107309;287;38907;-38
2023/05/25 13:14:07;;;;;;;9.40;8.50;;;;;;;;;;107303;285;39823;-38
2023/05/25 13:16:41;;;;;;;9.40;8.50;;;;;;;;;;107167;287;175474;-38
2023/05/25 13:19:14;;;;;;;9.50;8.60;;;;;;;;;;107302;287;42967;-36
2023/05/25 13:21:48;;;;;;;9.50;8.60;;;;;;;;;;107302;285;38566;-38
2023/05/25 13:24:22;;;;;;;9.30;8.40;;;;;;;;;;107322;287;39716;-36
2023/05/25 13:26:55;;;;;;;9.30;8.40;;;;;;;;;;107276;287;43156;-36
2023/05/25 13:29:29;;;;;;;9.30;8.40;;;;;;;;;;107315;285;42313;-33
2023/05/25 13:32:03;;;;;;;10.00;8.70;;;;;;;;;;107328;285;38816;-39
2023/05/25 13:34:39;;;;;;;10.00;9.10;;;;;;;;;;107113;285;175493;-39
2023/05/25 13:37:13;;;;;;;9.20;8.30;;;;;;;;;;107391;287;43128;-39
2023/05/25 13:39:47;;;;;;;9.20;8.30;;;;;;;;;;107411;287;42161;-38
2023/05/25 13:42:22;;;;;;;9.70;8.60;;;;;;;;;;107429;285;40871;-36
2023/05/25 13:44:56;;;;;;;9.00;8.20;;;;;;;;;;107436;285;39531;-36
2023/05/25 13:47:30;;;;;;;9.50;8.60;;;;;;;;;;107367;287;44006;-36
2023/05/25 13:50:05;;;;;;;9.40;8.50;;;;;;;;;;107411;285;43301;-37
2023/05/25 13:52:40;;;;;;;9.70;8.80;;;;;;;;;;107434;285;38561;-37
2023/05/25 13:55:14;;;;;;;9.30;8.40;;;;;;;;;;107399;285;39448;-36
2023/05/25 13:57:48;;;;;;;9.40;8.50;;;;;;;;;;107399;287;48425;-36
2023/05/25 14:00:23;;;;;;;9.40;8.50;;;;;;;;;;107395;285;41965;-36
2023/05/25 14:02:58;;;;;;;9.60;8.70;;;;;;;;;;107381;287;38586;-36
2023/05/25 14:05:32;;;;;;;9.60;8.70;;;;;;;;;;107384;285;39474;-37
2023/05/25 14:08:07;;;;;;;9.90;8.90;;;;;;;;;;107327;285;48512;-37
2023/05/25 14:10:42;;;;;;;9.60;8.70;;;;;;;;;;107393;285;42134;-36
2023/05/25 14:13:17;;;;;;;10.10;9.10;;;;;;;;;;107388;287;38790;-37
2023/05/25 14:15:53;;;;;;;9.70;8.80;;;;;;;;;;107378;286;41175;-36
2023/05/25 14:18:26;;;;;;;10.20;9.20;;;;;;;;;;107483;287;49440;-37
2023/05/25 14:21:00;;;;;;;9.70;8.80;;;;;;;;;;107385;287;41923;-37
2023/05/25 14:23:33;;;;;;;9.90;9.00;;;;;;;;;;107415;285;38595;-37
2023/05/25 14:26:07;;;;;;;10.30;9.30;;;;;;;;;;107575;283;39458;-38
2023/05/25 14:28:40;;;;;;;9.90;9.00;;;;;;;;;;107551;283;47684;-38
2023/05/25 14:31:14;;;;;;;9.70;8.90;;;;;;;;;;107571;283;42213;-38
2023/05/25 14:33:51;;;;;;;9.20;8.40;;;;;;;;;;107480;283;39792;-38
2023/05/25 14:36:24;;;;;;;9.20;8.30;;;;;;;;;;107582;283;40749;-36
2023/05/25 14:38:57;;;;;;;9.70;8.70;;;;;;;;;;107666;286;49792;-36
2023/05/25 14:41:31;;;;;;;9.20;8.40;;;;;;;;;;107574;283;175409;-36
2023/05/25 14:44:04;;;;;;;9.20;8.30;;;;;;;;;;107668;285;39806;-36
2023/05/25 14:46:40;;;;;;;9.40;8.50;;;;;;;;;;107516;286;39725;-36
2023/05/25 14:49:15;;;;;;;9.80;8.90;;;;;;;;;;107651;286;49655;-36
2023/05/25 14:51:49;;;;;;;9.30;8.40;;;;;;;;;;107585;283;42328;-37
2023/05/25 14:54:26;;;;;;;9.30;8.50;;;;;;;;;;107387;285;40249;-36
2023/05/25 14:57:00;;;;;;;9.20;8.30;;;;;;;;;;107577;281;39705;-37
2023/05/25 14:59:34;;;;;;;8.70;7.90;;;;;;;;;;107506;283;48994;-37
2023/05/25 15:02:07;;;;;;;8.80;8.00;;;;;;;;;;107621;283;42311;-34
2023/05/25 15:04:41;;;;;;;8.80;7.90;;;;;;;;;;107605;283;38794;-35
2023/05/25 15:07:14;;;;;;;8.70;7.80;;;;;;;;;;107518;283;41030;-37
2023/05/25 15:09:47;;;;;;;9.10;8.20;;;;;;;;;;107554;286;50376;-34
2023/05/25 15:12:20;;;;;;;8.80;8.00;;;;;;;;;;107527;283;42127;-34
2023/05/25 15:14:53;;;;;;;8.70;7.90;;;;;;;;;;107530;283;38793;-34
2023/05/25 15:17:27;;;;;;;8.90;8.00;;;;;;;;;;107522;283;39715;-35
2023/05/25 15:20:00;;;;;;;8.90;8.00;;;;;;;;;;107486;283;49803;-35
2023/05/25 15:22:34;;;;;;;8.80;8.00;;;;;;;;;;107488;283;42193;-35